createdAt,value
2023-05-10T00:00:16.576Z,65.85
2023-05-10T00:04:29.801Z,67.88
2023-05-10T00:08:42.364Z,68.45
2023-05-10T00:12:54.767Z,69.20
2023-05-10T00:17:07.170Z,70.21
2023-05-10T00:21:19.512Z,70.72
2023-05-10T00:25:31.919Z,69.41
2023-05-10T00:29:45.805Z,70.49
2023-05-10T00:33:58.173Z,69.83
2023-05-10T00:38:10.341Z,70.36
2023-05-10T00:42:23.688Z,70.03
2023-05-10T00:46:38.315Z,69.94
2023-05-10T00:50:51.035Z,71.97
2023-05-10T00:55:05.442Z,72.85
2023-05-10T00:59:19.016Z,74.38
2023-05-10T01:03:32.128Z,75.62
2023-05-10T01:07:44.355Z,76.42
2023-05-10T01:11:57.823Z,76.77
2023-05-10T01:16:10.512Z,79.31
2023-05-10T01:20:24.449Z,80.96
2023-05-10T01:24:39.743Z,81.00
2023-05-10T01:29:30.653Z,84.46
2023-05-10T01:33:56.866Z,86.28
2023-05-10T01:38:15.028Z,88.78
2023-05-10T01:42:34.942Z,87.64
2023-05-10T01:46:54.205Z,88.43
2023-05-10T01:51:08.164Z,89.47
2023-05-10T01:55:22.848Z,89.40
2023-05-10T01:59:40.406Z,91.09
2023-05-10T02:03:54.317Z,90.16
2023-05-10T02:08:08.180Z,88.58
2023-05-10T02:12:25.572Z,88.37
2023-05-10T02:16:40.321Z,88.98
2023-05-10T02:20:55.173Z,89.54
2023-05-10T02:25:10.325Z,88.57
2023-05-10T02:29:24.953Z,88.94
2023-05-10T02:33:40.780Z,88.27
2023-05-10T02:37:54.915Z,90.04
2023-05-10T02:42:07.927Z,89.16
2023-05-10T02:46:21.286Z,87.64
2023-05-10T02:50:35.194Z,88.24
2023-05-10T02:54:52.281Z,88.14
2023-05-10T02:59:04.755Z,87.62
2023-05-10T03:03:17.400Z,87.84
2023-05-10T03:07:30.076Z,88.04
2023-05-10T03:12:25.045Z,88.17
2023-05-10T03:16:45.027Z,87.36
2023-05-10T03:21:06.531Z,89.13
2023-05-10T03:25:23.458Z,90.40
2023-05-10T03:29:38.354Z,87.86
2023-05-10T03:33:52.218Z,87.87
2023-05-10T03:38:09.929Z,87.29
2023-05-10T03:42:22.395Z,86.78
2023-05-10T03:46:34.918Z,86.33
2023-05-10T03:50:50.598Z,85.83
2023-05-10T03:55:04.943Z,85.13
2023-05-10T03:59:17.430Z,84.36
2023-05-10T04:03:29.947Z,83.98
2023-05-10T04:07:45.493Z,83.74
2023-05-10T04:11:57.826Z,83.65
2023-05-10T04:16:10.556Z,83.29
2023-05-10T04:20:22.945Z,83.16
2023-05-10T04:24:35.420Z,83.08
2023-05-10T04:28:47.979Z,82.60
2023-05-10T04:33:00.481Z,83.07
2023-05-10T04:37:13.019Z,82.47
2023-05-10T04:41:26.519Z,83.58
2023-05-10T04:45:38.875Z,83.70
2023-05-10T04:49:51.369Z,83.03
2023-05-10T04:54:06.381Z,82.67
2023-05-10T04:58:19.100Z,82.05
2023-05-10T05:02:32.020Z,80.21
2023-05-10T05:06:44.605Z,79.68
2023-05-10T05:10:57.063Z,78.50
2023-05-10T05:15:10.924Z,79.07
2023-05-10T05:19:23.962Z,77.30
2023-05-10T05:23:36.322Z,76.91
2023-05-10T05:27:48.772Z,75.26
2023-05-10T05:32:01.496Z,73.79
2023-05-10T05:36:14.065Z,74.69
2023-05-10T05:40:26.571Z,72.91
2023-05-10T05:44:39.575Z,72.36
2023-05-10T05:48:51.980Z,71.26
2023-05-10T05:53:04.505Z,69.82
2023-05-10T06:01:29.373Z,69.40
2023-05-10T06:05:41.724Z,71.00
2023-05-10T06:09:54.068Z,71.48
2023-05-10T06:14:08.331Z,69.36
2023-05-10T06:18:20.642Z,69.88
2023-05-10T06:22:33.105Z,68.09
2023-05-10T06:26:45.523Z,67.16
2023-05-10T06:30:57.916Z,67.24
2023-05-10T06:35:12.830Z,67.24
2023-05-10T06:39:25.337Z,65.59
2023-05-10T06:43:41.198Z,66.35
2023-05-10T06:47:54.744Z,62.51
2023-05-10T06:52:07.137Z,62.50
2023-05-10T06:56:19.479Z,59.88
2023-05-10T07:00:32.108Z,59.41
2023-05-10T07:04:44.592Z,58.36
2023-05-10T07:08:57.028Z,58.42
2023-05-10T07:13:09.516Z,58.81
2023-05-10T07:17:22.242Z,59.16
2023-05-10T07:21:34.758Z,57.34
2023-05-10T07:25:52.714Z,55.93
2023-05-10T07:30:05.552Z,57.38
2023-05-10T07:34:20.141Z,59.45
2023-05-10T07:38:32.486Z,58.70
2023-05-10T07:42:45.837Z,62.43
2023-05-10T07:46:58.238Z,61.78
2023-05-10T07:51:10.983Z,60.12
2023-05-10T07:55:32.668Z,57.38
2023-05-10T07:59:46.135Z,57.78
2023-05-10T08:03:58.529Z,56.98
2023-05-10T08:08:11.072Z,57.89
2023-05-10T08:12:23.555Z,57.01
2023-05-10T08:16:36.490Z,54.58
2023-05-10T08:20:50.255Z,51.03
2023-05-10T08:25:02.724Z,51.09
2023-05-10T08:29:15.957Z,51.93
2023-05-10T08:33:28.357Z,45.90
2023-05-10T08:37:40.933Z,46.03
2023-05-10T08:42:01.284Z,45.35
2023-05-10T08:46:21.350Z,46.67
2023-05-10T08:50:38.757Z,44.92
2023-05-10T08:54:51.447Z,41.96
2023-05-10T08:59:10.575Z,40.68
2023-05-10T09:03:23.038Z,40.65
2023-05-10T09:07:36.367Z,41.11
2023-05-10T09:11:49.533Z,38.58
2023-05-10T09:16:19.888Z,40.42
2023-05-10T09:20:34.016Z,38.19
2023-05-10T09:24:46.517Z,39.74
2023-05-10T09:29:00.866Z,40.16
2023-05-10T09:33:13.363Z,39.73
2023-05-10T09:37:31.380Z,42.78
2023-05-10T09:41:44.029Z,43.22
2023-05-10T09:45:57.105Z,40.34
2023-05-10T09:50:11.416Z,42.39
2023-05-10T09:54:25.078Z,42.68
2023-05-10T09:58:41.964Z,41.77
2023-05-10T10:03:00.361Z,40.79
2023-05-10T10:07:13.205Z,39.21
2023-05-10T10:11:25.898Z,40.28
2023-05-10T10:15:38.686Z,35.37
2023-05-10T10:19:51.406Z,35.66
2023-05-10T10:24:06.578Z,36.13
2023-05-10T10:28:48.566Z,35.59
2023-05-10T10:33:30.119Z,32.92
2023-05-10T10:37:46.025Z,32.76
2023-05-10T10:42:00.355Z,34.94
2023-05-10T10:46:18.707Z,35.66
2023-05-10T10:50:31.518Z,33.56
2023-05-10T10:54:53.337Z,32.58
2023-05-10T10:59:06.558Z,33.47
2023-05-10T11:03:22.357Z,35.44
2023-05-10T11:07:34.959Z,34.03
2023-05-10T11:11:53.460Z,35.62
2023-05-10T11:16:41.919Z,37.09
2023-05-10T11:20:59.081Z,36.33
2023-05-10T11:25:12.183Z,45.17
2023-05-10T11:29:27.519Z,49.27
2023-05-10T11:33:51.628Z,52.94
2023-05-10T11:38:06.677Z,54.08
2023-05-10T11:42:19.135Z,49.87
2023-05-10T11:46:31.514Z,47.72
2023-05-10T11:50:45.416Z,45.94
2023-05-10T11:54:59.485Z,46.45
2023-05-10T11:59:12.009Z,43.88
2023-05-10T12:03:24.498Z,46.91
2023-05-10T12:07:37.090Z,49.64
2023-05-10T12:11:49.463Z,48.13
2023-05-10T12:16:14.451Z,50.71
2023-05-10T12:20:29.238Z,48.91
2023-05-10T12:24:41.903Z,49.62
2023-05-10T12:29:13.279Z,50.19
2023-05-10T12:33:25.997Z,51.54
2023-05-10T12:37:40.348Z,52.22
2023-05-10T12:41:53.385Z,50.69
2023-05-10T12:46:10.344Z,51.30
2023-05-10T12:50:22.796Z,49.95
2023-05-10T12:54:36.889Z,53.01
2023-05-10T12:58:49.977Z,53.93
2023-05-10T13:03:02.441Z,54.52
2023-05-10T13:07:14.907Z,55.32
2023-05-10T13:11:27.572Z,54.88
2023-05-10T13:15:39.846Z,56.13
2023-05-10T13:19:52.164Z,55.59
2023-05-10T13:24:04.560Z,56.23
2023-05-10T13:28:16.941Z,55.53
2023-05-10T13:32:29.462Z,56.10
2023-05-10T13:36:42.385Z,57.25
2023-05-10T13:40:54.750Z,55.84
2023-05-10T13:45:07.629Z,56.38
2023-05-10T13:49:20.117Z,54.77
2023-05-10T13:53:32.469Z,54.52
2023-05-10T13:57:44.874Z,53.57
2023-05-10T14:01:57.257Z,55.74
2023-05-10T14:06:09.912Z,56.55
2023-05-10T14:10:22.308Z,56.67
2023-05-10T14:14:34.733Z,58.16
2023-05-10T14:18:47.643Z,58.49
2023-05-10T14:23:00.023Z,58.95
2023-05-10T14:27:13.078Z,57.39
2023-05-10T14:31:26.821Z,57.06
2023-05-10T14:35:39.303Z,57.85
2023-05-10T14:39:51.631Z,57.88
2023-05-10T14:44:04.723Z,57.95
2023-05-10T14:48:18.618Z,58.69
2023-05-10T14:52:32.214Z,58.44
2023-05-10T14:56:46.575Z,59.42
2023-05-10T15:00:58.967Z,59.89
2023-05-10T15:05:12.201Z,59.25
2023-05-10T15:09:25.012Z,59.80
2023-05-10T15:13:37.327Z,59.07
2023-05-10T15:17:49.942Z,62.47
2023-05-10T15:22:03.385Z,63.64
2023-05-10T15:26:15.946Z,65.45
2023-05-10T15:30:28.422Z,68.77
2023-05-10T15:34:40.753Z,74.11
2023-05-10T15:38:53.125Z,79.16
2023-05-10T15:43:06.542Z,79.88
2023-05-10T15:47:18.951Z,83.38
2023-05-10T15:51:31.283Z,84.07
2023-05-10T15:55:44.075Z,84.67
2023-05-10T15:59:56.663Z,87.05
2023-05-10T16:04:09.055Z,87.39
2023-05-10T16:08:22.786Z,87.88
2023-05-10T16:12:35.250Z,89.99
2023-05-10T16:16:47.919Z,89.07
2023-05-10T16:21:01.004Z,89.18
2023-05-10T16:25:13.747Z,89.71
2023-05-10T16:29:26.519Z,89.97
2023-05-10T16:33:39.344Z,90.77
2023-05-10T16:37:54.059Z,90.38
2023-05-10T16:42:06.504Z,88.78
2023-05-10T16:46:18.942Z,89.64
2023-05-10T16:50:31.446Z,90.04
2023-05-10T16:54:44.398Z,90.42
2023-05-10T16:58:56.961Z,88.18
2023-05-10T17:03:09.337Z,89.58
2023-05-10T17:07:23.012Z,89.71
2023-05-10T17:11:36.617Z,89.69
2023-05-10T17:15:50.251Z,89.99
2023-05-10T17:20:03.177Z,89.72
2023-05-10T17:24:15.961Z,89.94
2023-05-10T17:28:29.290Z,89.80
2023-05-10T17:32:41.927Z,90.28
2023-05-10T17:36:54.516Z,90.31
2023-05-10T17:41:07.778Z,89.37
2023-05-10T17:45:20.484Z,89.68
2023-05-10T17:49:34.731Z,90.75
2023-05-10T17:53:48.642Z,90.50
2023-05-10T17:58:01.248Z,91.14
2023-05-10T18:02:14.299Z,91.15
2023-05-10T18:06:27.168Z,91.11
2023-05-10T18:10:41.318Z,92.35
2023-05-10T18:14:54.170Z,92.45
2023-05-10T18:19:06.751Z,92.39
2023-05-10T18:23:19.197Z,93.56
2023-05-10T18:27:32.206Z,92.93
2023-05-10T18:31:44.801Z,92.42
2023-05-10T18:35:57.382Z,94.24
2023-05-10T18:40:12.899Z,95.02
2023-05-10T18:44:27.063Z,95.66
2023-05-10T18:48:41.208Z,96.06
2023-05-10T18:52:53.877Z,95.33
2023-05-10T18:57:06.350Z,95.07
2023-05-10T19:01:18.850Z,95.12
2023-05-10T19:05:32.486Z,94.49
2023-05-10T19:09:45.022Z,93.69
2023-05-10T19:13:57.322Z,95.21
2023-05-10T19:18:09.996Z,95.78
2023-05-10T19:22:35.977Z,95.91
2023-05-10T19:26:56.559Z,93.45
2023-05-10T19:31:09.072Z,93.56
2023-05-10T19:35:21.934Z,91.79
2023-05-10T19:39:34.275Z,90.71
2023-05-10T19:43:46.841Z,92.09
2023-05-10T19:47:59.826Z,92.41
2023-05-10T19:52:12.502Z,93.52
2023-05-10T19:56:25.212Z,90.87
2023-05-10T20:00:38.152Z,91.70
2023-05-10T20:04:50.589Z,90.20
2023-05-10T20:09:03.017Z,92.46
2023-05-10T20:13:16.390Z,93.63
2023-05-10T20:17:28.795Z,92.97
2023-05-10T20:21:41.195Z,89.96
2023-05-10T20:25:55.058Z,92.31
2023-05-10T20:30:07.966Z,92.48
2023-05-10T20:34:20.507Z,91.33
2023-05-10T20:38:33.116Z,92.14
2023-05-10T20:42:45.521Z,92.38
2023-05-10T20:46:57.943Z,92.72
2023-05-10T20:51:10.387Z,92.04
2023-05-10T20:55:22.915Z,92.14
2023-05-10T20:59:35.369Z,91.71
2023-05-10T21:03:47.856Z,91.59
2023-05-10T21:08:00.270Z,91.46
2023-05-10T21:12:13.470Z,91.28
2023-05-10T21:16:26.314Z,91.25
2023-05-10T21:20:38.926Z,90.72
2023-05-10T21:24:51.440Z,90.42
2023-05-10T21:29:05.013Z,91.55
2023-05-10T21:33:17.669Z,92.83
2023-05-10T21:37:30.149Z,93.94
2023-05-10T21:41:43.982Z,93.28
2023-05-10T21:45:56.431Z,91.88
2023-05-10T21:50:12.320Z,94.64
2023-05-10T21:54:24.798Z,92.33
2023-05-10T21:58:37.185Z,92.93
2023-05-10T22:02:49.659Z,90.93
2023-05-10T22:07:02.036Z,90.32
2023-05-10T22:11:14.475Z,93.37
2023-05-10T22:15:27.416Z,94.01
2023-05-10T22:19:39.912Z,92.49
2023-05-10T22:23:52.177Z,92.86
2023-05-10T22:28:05.059Z,91.27
2023-05-10T22:32:17.622Z,92.40
2023-05-10T22:36:30.902Z,93.22
2023-05-10T22:40:43.391Z,92.21
2023-05-10T22:44:56.112Z,91.36
2023-05-10T22:49:08.605Z,91.98
2023-05-10T22:53:21.318Z,93.62
2023-05-10T22:57:34.283Z,93.32
2023-05-10T23:01:46.670Z,92.86
2023-05-10T23:05:59.148Z,94.68
2023-05-10T23:10:11.822Z,95.36
2023-05-10T23:14:24.525Z,95.49
2023-05-10T23:18:37.045Z,93.61
2023-05-10T23:22:49.822Z,94.47
2023-05-10T23:27:02.785Z,92.45
2023-05-10T23:31:15.324Z,94.13
2023-05-10T23:35:27.704Z,94.20
2023-05-10T23:39:40.397Z,89.53
2023-05-10T23:43:52.770Z,91.79
2023-05-10T23:48:05.312Z,89.34
2023-05-10T23:52:18.069Z,88.47
2023-05-10T23:56:30.333Z,89.21
